Flight Track Log - Related Links

Times and Time Zones

All times are in EDT time to prevent confusion due to time zone crossing. See the N968CD flight status page for this flight to view local times or setup timezone preferences in your user account.

Time Position Orientation Groundspeed Altitude Reporting Facility
EDT Latitude Longitude Course Direction KTS MPH feet Rate Location/Type
Sat 06:27:00 PM 32.3937 -80.9411 310° West  Level FlightAware Approximate
Sat 06:28:00 PM 32.4174 -80.9844 309° West  Level FlightAware Approximate
Sat 06:29:00 PM 32.4469 -81.0274 309° West  Level FlightAware Approximate
Sat 06:30:00 PM 32.4765 -81.0705 309° West  Level FlightAware Approximate
Sat 06:31:00 PM 32.5060 -81.1136 309° West  Level FlightAware Approximate
Sat 06:31:02 PM 32.4844 -81.1564 308° West 140 161 7,900  Level Jacksonville Center
Sat 06:32:00 PM 32.5355 -81.1567 309° West  Level FlightAware Approximate
Sat 06:32:02 PM 32.5078 -81.1903 309° West 152 175 8,100  Level Jacksonville Center
Sat 06:33:00 PM 32.5650 -81.1999 309° West  Level FlightAware Approximate
Sat 06:33:02 PM 32.5419 -81.2414 308° West 171 197 8,000  Level Jacksonville Center
Sat 06:34:00 PM 32.5945 -81.2431 309° West  Level FlightAware Approximate
Sat 06:34:02 PM 32.5761 -81.2900 310° West 182 209 8,000  Level Jacksonville Center
Sat 06:35:00 PM 32.6240 -81.2863 309° West  Level FlightAware Approximate
Sat 06:35:02 PM 32.6100 -81.3364 311° West 182 209 8,000  Level Jacksonville Center
Sat 06:36:00 PM 32.6530 -81.3299 308° West  Level FlightAware Approximate
Sat 06:36:02 PM 32.6397 -81.3803 309° West 182 209 8,100  Level Jacksonville Center
Sat 06:37:02 PM 32.6758 -81.4317 310° West 187 215 8,100  Level Jacksonville Center
Sat 06:38:02 PM 32.7033 -81.4706 310° West 181 208 8,100  Level Jacksonville Center
Sat 06:39:02 PM 32.7436 -81.5267 310° West 186 214 8,100  Level Jacksonville Center
Sat 06:40:02 PM 32.7756 -81.5733 309° West 186 214 8,100  Level Jacksonville Center
Sat 06:41:02 PM 32.8094 -81.6247 308° West 191 220 8,100 -30 Level Jacksonville Center
Sat 06:43:00 PM 32.8796 -81.6957 320° Northwest  Level FlightAware Approximate
Sat 06:50:00 PM 33.0907 -81.9982 308° West  Level FlightAware Approximate
Sat 06:51:00 PM 33.1216 -82.0453 308° West  Level FlightAware Approximate
Sat 06:52:00 PM 33.1524 -82.0924 308° West  Level FlightAware Approximate
Sat 06:53:00 PM 33.1832 -82.1396 308° West  Level FlightAware Approximate
Sat 06:54:00 PM 33.2139 -82.1868 308° West  Level FlightAware Approximate
Sat 06:55:00 PM 33.2447 -82.2340 308° West  Level FlightAware Approximate
Sat 06:56:00 PM 33.2679 -82.2876 297° West  Level Estimated
Sat 06:57:00 PM 33.2912 -82.3411 297° West  Level Estimated
Sat 06:58:00 PM 33.3144 -82.3947 297° West  Level Estimated
Sat 06:59:00 PM 33.3376 -82.4483 297° West  Level Estimated
Sat 07:00:00 PM 33.3608 -82.5020 297° West  Level Estimated
Sat 07:01:00 PM 33.3839 -82.5557 297° West  Level Estimated
Sat 07:02:00 PM 33.4071 -82.6094 297° West  Level Estimated
Sat 07:03:00 PM 33.4302 -82.6631 297° West  Level Estimated
Sat 07:04:00 PM 33.4533 -82.7169 297° West  Level Estimated
Sat 07:05:00 PM 33.4763 -82.7707 297° West  Level Estimated
Sat 07:06:00 PM 33.4994 -82.8245 297° West  Level Estimated
Sat 07:07:00 PM 33.5224 -82.8783 297° West  Level Estimated
Sat 07:08:00 PM 33.5453 -82.9322 297° West  Level Estimated
Sat 07:09:00 PM 33.5683 -82.9861 297° West  Level Estimated
Sat 07:10:00 PM 33.5913 -83.0401 297° West  Level Estimated
Sat 07:11:00 PM 33.6142 -83.0940 297° West  Level Estimated
Sat 07:12:00 PM 33.6371 -83.1480 297° West  Level Estimated
Sat 07:13:00 PM 33.6600 -83.2020 297° West  Level Estimated
Sat 07:14:00 PM 33.6828 -83.2561 297° West  Level Estimated
Sat 07:15:00 PM 33.7056 -83.3102 297° West  Level Estimated
Sat 07:16:00 PM 33.7284 -83.3643 297° West  Level Estimated
Sat 07:17:00 PM 33.7512 -83.4184 297° West  Level Estimated
Sat 07:18:00 PM 33.7739 -83.4726 297° West  Level Estimated
Sat 07:19:00 PM 33.7967 -83.5268 297° West  Level Estimated
Sat 07:20:00 PM 33.8194 -83.5810 297° West  Level Estimated
Sat 07:20:37 PM 33.7167 -83.6667 297° West 187 215 6,900  Level Atlanta TRACON
Sat 07:21:00 PM 33.8421 -83.6353 297° West  Level Estimated
Sat 07:21:37 PM 33.7333 -83.7167 292° West 180 207 6,400  Level Atlanta TRACON
Sat 07:22:00 PM 33.8647 -83.6895 297° West  Level Estimated
Sat 07:22:37 PM 33.7500 -83.7667 292° West 183 211 5,900  Level Atlanta TRACON
Sat 07:23:00 PM 33.8874 -83.7439 297° West  Level Estimated
Sat 07:24:00 PM 33.9100 -83.7982 297° West  Level Estimated
Sat 07:24:37 PM 33.7833 -83.8833 289° West 176 203 4,800  Level Atlanta TRACON
Sat 07:25:00 PM 33.9326 -83.8526 297° West  Level Estimated
Sat 07:25:37 PM 33.8000 -83.9333 292° West 178 205 4,200  Level Atlanta TRACON
Sat 07:26:00 PM 33.9551 -83.9070 297° West  Level Estimated
Sat 07:26:37 PM 33.8167 -84.0000 287° West 164 189 4,000  Level Atlanta TRACON
Sat 07:27:37 PM 33.8167 -84.0500 270° West 157 181 4,100 -267 Climbing Atlanta TRACON
Sat 07:29:37 PM 33.9000 -84.0833 342° North 172 198 3,200 -400 Descending Atlanta TRACON
Sat 07:30:37 PM 33.9333 -84.0667 23° Northeast 158 182 2,900 -500 Descending Atlanta TRACON
Sat 07:31:37 PM 33.9500 -84.0333 59° Northeast 124 143 2,200 -600 Descending Atlanta TRACON
Sat 07:32:37 PM 33.9667 -84.0000 59° Northeast 96 110 1,700 -500 Descending Atlanta TRACON
Sat 07:34:00 PM 33.9781 -83.9624 90° East  Level Estimated
Sat 07:41:00 PM 33.9781 -83.9624 90° East  Level Estimated
Sat 07:42:00 PM 33.9781 -83.9624 90° East  Level Estimated

Login

Don't have an account? Register now (free) for customized features, flight alerts, and more!